Terminal Aerodrome Forecast
Issued by NWS

Home | Current Version | Previous Version | Graphics & Text | Print | Product List | Glossary On
Versions: 1 2 3 4 5 6 7 8 9 10 11 12 13 14 15
000
FTUS43 KICT 282330
TAFRSL
TAF
KRSL 282330Z 2900/2924 36014G20KT P6SM SKC
     FM290100 01010KT P6SM SKC
     FM291200 06010KT P6SM BKN120=

USA.gov is the U.S. government's official web portal to all federal, state and local government web resources and services.